createdAt,value
2022-12-23T00:01:46.363Z,6.80
2022-12-23T00:04:12.999Z,6.79
2022-12-23T00:06:39.521Z,6.81
2022-12-23T00:09:06.061Z,6.76
2022-12-23T00:11:32.569Z,6.72
2022-12-23T00:14:21.634Z,6.75
2022-12-23T00:16:50.425Z,6.66
2022-12-23T00:19:17.214Z,6.72
2022-12-23T00:21:43.766Z,6.75
2022-12-23T00:24:11.571Z,6.79
2022-12-23T00:26:38.548Z,6.83
2022-12-23T00:29:05.475Z,6.88
2022-12-23T00:31:32.276Z,6.89
2022-12-23T00:33:58.835Z,6.93
2022-12-23T00:36:30.034Z,6.93
2022-12-23T00:39:17.037Z,6.96
2022-12-23T00:42:02.309Z,6.98
2022-12-23T00:44:28.937Z,6.97
2022-12-23T00:46:55.443Z,6.96
2022-12-23T00:49:40.481Z,6.97
2022-12-23T00:52:09.030Z,6.95
2022-12-23T00:54:35.540Z,6.86
2022-12-23T00:57:02.298Z,6.87
2022-12-23T00:59:28.831Z,6.85
2022-12-23T01:02:14.290Z,6.83
2022-12-23T01:04:59.527Z,6.81
2022-12-23T01:07:26.187Z,6.82
2022-12-23T01:09:52.674Z,6.82
2022-12-23T01:12:19.226Z,6.82
2022-12-23T01:14:45.766Z,6.83
2022-12-23T01:17:12.341Z,6.81
2022-12-23T01:19:38.867Z,6.81
2022-12-23T01:22:05.651Z,6.76
2022-12-23T01:24:32.753Z,6.82
2022-12-23T01:26:59.536Z,6.81
2022-12-23T01:29:26.413Z,6.80
2022-12-23T01:31:53.028Z,6.82
2022-12-23T01:34:19.605Z,6.68
2022-12-23T01:36:46.132Z,6.70
2022-12-23T01:39:12.705Z,6.76
2022-12-23T01:41:57.691Z,6.76
2022-12-23T01:44:46.189Z,6.66
2022-12-23T01:47:35.577Z,6.62
2022-12-23T01:50:19.639Z,6.64
2022-12-23T01:53:08.069Z,6.58
2022-12-23T01:55:44.519Z,6.60
2022-12-23T01:58:28.329Z,6.58
2022-12-23T02:01:14.994Z,6.63
2022-12-23T02:03:44.680Z,6.60
2022-12-23T02:06:40.069Z,6.64
2022-12-23T02:09:19.108Z,6.67
2022-12-23T02:12:00.832Z,6.66
2022-12-23T02:14:58.631Z,6.68
2022-12-23T02:17:29.823Z,6.74
2022-12-23T02:20:14.690Z,6.79
2022-12-23T02:23:19.265Z,6.74
2022-12-23T02:26:01.347Z,6.78
2022-12-23T02:28:49.522Z,6.75
2022-12-23T02:31:38.022Z,6.74
2022-12-23T02:34:18.012Z,6.77
2022-12-23T02:37:08.594Z,6.81
2022-12-23T02:39:48.359Z,6.81
2022-12-23T02:42:21.755Z,6.85
2022-12-23T02:44:58.387Z,6.84
2022-12-23T02:47:38.234Z,6.82
2022-12-23T02:50:09.856Z,6.88
2022-12-23T02:52:37.733Z,6.92
2022-12-23T02:55:12.603Z,6.95
2022-12-23T02:57:41.361Z,6.98
2022-12-23T03:00:08.485Z,6.99
2022-12-23T03:02:37.750Z,7.01
2022-12-23T03:05:04.828Z,7.00
2022-12-23T03:07:35.450Z,7.00
2022-12-23T03:10:23.623Z,6.99
2022-12-23T03:12:56.977Z,7.01
2022-12-23T03:15:45.178Z,6.92
2022-12-23T03:18:27.727Z,6.96
2022-12-23T03:21:04.911Z,6.97
2022-12-23T03:23:42.474Z,6.90
2022-12-23T03:26:16.520Z,6.84
2022-12-23T03:28:47.901Z,6.82
2022-12-23T03:31:18.512Z,6.87
2022-12-23T03:33:48.278Z,6.84
2022-12-23T03:36:24.985Z,6.83
2022-12-23T03:38:53.771Z,6.86
2022-12-23T03:41:25.131Z,6.79
2022-12-23T03:44:14.081Z,6.79
2022-12-23T03:46:46.169Z,6.77
2022-12-23T03:49:17.029Z,6.82
2022-12-23T03:51:53.651Z,6.82
2022-12-23T03:54:25.643Z,6.85
2022-12-23T03:56:59.036Z,6.86
2022-12-23T03:59:28.191Z,6.93
2022-12-23T04:02:08.226Z,6.94
2022-12-23T04:04:43.793Z,6.96
2022-12-23T04:07:13.938Z,6.96
2022-12-23T04:09:40.846Z,6.97
2022-12-23T04:12:07.742Z,6.95
2022-12-23T04:14:35.514Z,6.95
2022-12-23T04:17:02.229Z,7.00
2022-12-23T04:19:28.787Z,6.95
2022-12-23T04:21:56.049Z,7.02
2022-12-23T04:24:22.673Z,7.04
2022-12-23T04:26:49.182Z,7.06
2022-12-23T04:29:15.763Z,7.06
2022-12-23T04:31:42.355Z,7.10
2022-12-23T04:34:09.243Z,7.06
2022-12-23T04:36:36.248Z,7.05
2022-12-23T04:39:02.793Z,7.05
2022-12-23T04:41:29.465Z,7.07
2022-12-23T04:43:56.208Z,7.08
2022-12-23T04:46:22.751Z,7.10
2022-12-23T04:48:49.370Z,7.07
2022-12-23T04:51:15.903Z,7.05
2022-12-23T04:53:42.404Z,7.08
2022-12-23T04:56:08.898Z,7.04
2022-12-23T04:58:35.451Z,7.05
2022-12-23T05:01:07.686Z,7.06
2022-12-23T05:03:34.548Z,7.04
2022-12-23T05:06:01.171Z,7.10
2022-12-23T05:08:28.177Z,7.14
2022-12-23T05:10:54.803Z,7.18
2022-12-23T05:13:21.612Z,7.21
2022-12-23T05:15:52.799Z,7.21
2022-12-23T05:18:19.878Z,7.21
2022-12-23T05:20:46.478Z,7.22
2022-12-23T05:23:13.118Z,7.22
2022-12-23T05:25:39.988Z,7.23
2022-12-23T05:28:08.032Z,7.28
2022-12-23T05:30:34.665Z,7.29
2022-12-23T05:33:01.282Z,7.27
2022-12-23T05:35:28.077Z,7.28
2022-12-23T05:37:55.111Z,7.24
2022-12-23T05:40:24.455Z,7.27
2022-12-23T05:42:51.866Z,7.28
2022-12-23T05:45:18.442Z,7.27
2022-12-23T05:47:44.986Z,7.23
2022-12-23T05:50:11.849Z,7.27
2022-12-23T05:52:39.067Z,7.29
2022-12-23T05:55:06.207Z,7.27
2022-12-23T05:57:32.703Z,7.26
2022-12-23T05:59:59.210Z,7.32
2022-12-23T06:02:25.808Z,7.37
2022-12-23T06:04:52.443Z,7.39
2022-12-23T06:07:18.936Z,7.38
2022-12-23T06:09:45.510Z,7.38
2022-12-23T06:12:12.145Z,7.39
2022-12-23T06:14:38.881Z,7.39
2022-12-23T06:17:05.538Z,7.42
2022-12-23T06:19:32.123Z,7.42
2022-12-23T06:21:58.631Z,7.47
2022-12-23T06:24:25.155Z,7.48
2022-12-23T06:26:56.747Z,7.50
2022-12-23T06:29:24.340Z,7.54
2022-12-23T06:31:50.992Z,7.59
2022-12-23T06:34:17.972Z,7.60
2022-12-23T06:36:44.559Z,7.58
2022-12-23T06:39:11.338Z,7.62
2022-12-23T06:41:37.913Z,7.63
2022-12-23T06:44:04.716Z,7.67
2022-12-23T06:46:31.454Z,7.67
2022-12-23T06:48:58.106Z,7.69
2022-12-23T06:51:24.720Z,7.69
2022-12-23T06:53:51.332Z,7.69
2022-12-23T06:56:18.585Z,7.70
2022-12-23T06:58:45.161Z,7.67
2022-12-23T07:01:11.776Z,7.67
2022-12-23T07:03:38.598Z,7.68
2022-12-23T07:06:05.411Z,7.70
2022-12-23T07:08:31.959Z,7.71
2022-12-23T07:10:59.583Z,7.69
2022-12-23T07:13:26.665Z,7.67
2022-12-23T07:15:53.192Z,7.62
2022-12-23T07:18:21.946Z,7.58
2022-12-23T07:20:48.552Z,7.59
2022-12-23T07:23:15.230Z,7.54
2022-12-23T07:25:41.757Z,7.51
2022-12-23T07:28:08.314Z,7.50
2022-12-23T07:30:35.331Z,7.54
2022-12-23T07:33:02.015Z,7.52
2022-12-23T07:35:28.629Z,7.54
2022-12-23T07:37:55.895Z,7.49
2022-12-23T07:40:26.329Z,7.55
2022-12-23T07:42:58.329Z,7.53
2022-12-23T07:45:25.609Z,7.50
2022-12-23T07:47:54.382Z,7.57
2022-12-23T07:50:21.389Z,7.53
2022-12-23T07:52:47.956Z,7.54
2022-12-23T07:55:14.756Z,7.54
2022-12-23T07:57:41.401Z,7.56
2022-12-23T08:00:10.207Z,7.58
2022-12-23T08:02:40.791Z,7.59
2022-12-23T08:05:08.308Z,7.62
2022-12-23T08:07:35.082Z,7.62
2022-12-23T08:10:01.710Z,7.62
2022-12-23T08:12:28.265Z,7.61
2022-12-23T08:14:54.860Z,7.64
2022-12-23T08:17:21.720Z,7.70
2022-12-23T08:19:48.897Z,7.71
2022-12-23T08:22:15.863Z,7.72
2022-12-23T08:24:42.440Z,7.73
2022-12-23T08:27:08.964Z,7.77
2022-12-23T08:29:36.634Z,7.78
2022-12-23T08:32:03.508Z,7.80
2022-12-23T08:34:30.200Z,7.78
2022-12-23T08:36:56.704Z,7.79
2022-12-23T08:39:23.305Z,7.84
2022-12-23T08:41:49.973Z,7.88
2022-12-23T08:44:17.024Z,7.93
2022-12-23T08:46:43.906Z,7.96
2022-12-23T08:49:10.633Z,7.96
2022-12-23T08:51:37.761Z,7.97
2022-12-23T08:54:05.369Z,7.97
2022-12-23T08:56:35.021Z,7.97
2022-12-23T08:59:02.062Z,7.96
2022-12-23T09:01:31.625Z,7.99
2022-12-23T09:03:58.573Z,7.99
2022-12-23T09:06:29.954Z,7.97
2022-12-23T09:08:57.680Z,7.98
2022-12-23T09:11:26.247Z,8.02
2022-12-23T09:13:53.465Z,8.00
2022-12-23T09:16:20.346Z,8.02
2022-12-23T09:18:46.943Z,8.00
2022-12-23T09:21:15.927Z,8.03
2022-12-23T09:23:43.129Z,8.04
2022-12-23T09:26:10.816Z,8.07
2022-12-23T09:28:37.765Z,8.08
2022-12-23T09:31:11.826Z,7.95
2022-12-23T09:33:38.584Z,8.01
2022-12-23T09:36:05.777Z,8.05
2022-12-23T09:38:32.617Z,8.07
2022-12-23T09:41:28.078Z,7.93
2022-12-23T09:44:15.979Z,7.95
2022-12-23T09:46:49.334Z,7.98
2022-12-23T09:49:17.526Z,7.96
2022-12-23T09:51:44.511Z,8.02
2022-12-23T09:54:23.521Z,7.97
2022-12-23T09:56:52.949Z,7.97
2022-12-23T09:59:55.115Z,7.91
2022-12-23T10:02:44.266Z,7.96
2022-12-23T10:05:39.013Z,7.93
2022-12-23T10:08:20.195Z,7.94
2022-12-23T10:10:47.349Z,7.86
2022-12-23T10:13:36.964Z,7.92
2022-12-23T10:16:07.896Z,7.90
2022-12-23T10:18:56.290Z,7.84
2022-12-23T10:21:47.178Z,7.86
2022-12-23T10:24:25.959Z,7.92
2022-12-23T10:26:57.676Z,8.02
2022-12-23T10:29:26.830Z,8.07
2022-12-23T10:32:11.585Z,8.09
2022-12-23T10:34:53.250Z,8.09
2022-12-23T10:37:25.351Z,8.12
2022-12-23T10:40:04.074Z,8.09
2022-12-23T10:42:38.299Z,8.12
2022-12-23T10:45:12.947Z,8.06
2022-12-23T10:48:11.925Z,8.13
2022-12-23T10:50:46.751Z,8.24
2022-12-23T10:53:31.239Z,8.26
2022-12-23T10:55:58.124Z,8.28
2022-12-23T10:58:25.529Z,8.35
2022-12-23T11:00:55.820Z,8.40
2022-12-23T11:03:34.145Z,8.36
2022-12-23T11:06:01.243Z,8.40
2022-12-23T11:08:30.646Z,8.42
2022-12-23T11:10:59.405Z,8.46
2022-12-23T11:13:40.813Z,8.45
2022-12-23T11:16:37.361Z,8.38
2022-12-23T11:19:06.716Z,8.40
2022-12-23T11:21:33.713Z,8.34
2022-12-23T11:24:19.508Z,8.31
2022-12-23T11:26:48.309Z,8.30
2022-12-23T11:29:24.156Z,8.23
2022-12-23T11:31:51.511Z,8.28
2022-12-23T11:34:21.587Z,8.25
2022-12-23T11:36:56.610Z,8.27
2022-12-23T11:39:28.186Z,8.18
2022-12-23T11:42:27.293Z,8.21
2022-12-23T11:44:55.238Z,8.13
2022-12-23T11:47:34.309Z,8.11
2022-12-23T11:50:03.814Z,8.08
2022-12-23T11:52:31.858Z,8.04
2022-12-23T11:55:01.014Z,8.07
2022-12-23T11:57:39.823Z,8.09
2022-12-23T12:00:28.220Z,8.18
2022-12-23T12:03:02.148Z,8.19
2022-12-23T12:05:53.404Z,8.19
2022-12-23T12:08:28.548Z,8.21
2022-12-23T12:11:02.143Z,8.20
2022-12-23T12:13:45.510Z,8.17
2022-12-23T12:16:39.011Z,8.20
2022-12-23T12:19:11.963Z,8.22
2022-12-23T12:21:39.054Z,8.21
2022-12-23T12:24:19.543Z,8.19
2022-12-23T12:26:51.406Z,8.10
2022-12-23T12:29:27.202Z,8.12
2022-12-23T12:31:57.198Z,8.20
2022-12-23T12:34:56.478Z,8.18
2022-12-23T12:37:36.951Z,8.27
2022-12-23T12:40:15.683Z,8.27
2022-12-23T12:42:44.753Z,8.34
2022-12-23T12:45:20.072Z,8.34
2022-12-23T12:48:01.394Z,8.38
2022-12-23T12:50:39.613Z,8.43
2022-12-23T12:53:13.159Z,8.43
2022-12-23T12:55:42.402Z,8.40
2022-12-23T12:58:19.642Z,8.37
2022-12-23T13:00:58.138Z,8.43
2022-12-23T13:03:39.949Z,8.44
2022-12-23T13:06:33.602Z,8.37
2022-12-23T13:09:13.846Z,8.33
2022-12-23T13:11:46.701Z,8.36
2022-12-23T13:14:35.392Z,8.36
2022-12-23T13:17:33.987Z,8.31
2022-12-23T13:20:31.544Z,8.33
2022-12-23T13:23:27.029Z,8.31
2022-12-23T13:25:58.714Z,8.34
2022-12-23T13:28:48.626Z,8.28
2022-12-23T13:31:34.935Z,8.27
2022-12-23T13:34:19.858Z,8.26
2022-12-23T13:37:08.735Z,8.25
2022-12-23T13:39:51.869Z,8.25
2022-12-23T13:42:25.843Z,8.17
2022-12-23T13:44:52.967Z,8.15
2022-12-23T13:47:44.182Z,8.12
2022-12-23T13:50:23.768Z,8.06
2022-12-23T13:53:01.521Z,8.10
2022-12-23T13:55:44.732Z,8.10
2022-12-23T13:58:17.265Z,8.11
2022-12-23T14:00:44.137Z,8.11
2022-12-23T14:03:12.662Z,8.09
2022-12-23T14:05:45.366Z,8.08
2022-12-23T14:08:24.539Z,8.07
2022-12-23T14:10:59.048Z,8.08
2022-12-23T14:13:29.381Z,8.08
2022-12-23T14:16:19.647Z,7.97
2022-12-23T14:19:06.791Z,7.92
2022-12-23T14:21:41.509Z,7.89
2022-12-23T14:24:23.317Z,7.84
2022-12-23T14:27:34.411Z,7.79
2022-12-23T14:30:10.521Z,7.87
2022-12-23T14:32:50.187Z,7.93
2022-12-23T14:35:35.487Z,7.90
2022-12-23T14:38:15.530Z,7.95
2022-12-23T14:40:42.073Z,7.98
2022-12-23T14:43:45.104Z,7.93
2022-12-23T14:46:34.715Z,7.92
2022-12-23T14:49:29.865Z,7.93
2022-12-23T14:51:50.939Z,7.90
2022-12-23T14:54:18.591Z,7.95
2022-12-23T14:57:00.969Z,7.94
2022-12-23T14:59:37.399Z,7.97
2022-12-23T15:02:27.479Z,7.96
2022-12-23T15:04:56.123Z,7.96
2022-12-23T15:07:39.309Z,7.94
2022-12-23T15:10:16.413Z,7.96
2022-12-23T15:12:47.198Z,7.97
2022-12-23T15:15:14.799Z,7.97
2022-12-23T15:17:41.786Z,7.97
2022-12-23T15:20:14.673Z,7.99
2022-12-23T15:22:43.409Z,8.00
2022-12-23T15:25:24.214Z,7.95
2022-12-23T15:27:55.937Z,7.92
2022-12-23T15:30:27.863Z,7.93
2022-12-23T15:32:59.851Z,7.89
2022-12-23T15:35:31.725Z,7.83
2022-12-23T15:37:58.897Z,7.79
2022-12-23T15:40:27.067Z,7.80
2022-12-23T15:42:53.695Z,7.77
2022-12-23T15:45:23.154Z,7.75
2022-12-23T15:47:50.171Z,7.67
2022-12-23T15:50:18.512Z,7.64
2022-12-23T15:52:47.664Z,7.63
2022-12-23T15:55:25.662Z,7.53
2022-12-23T15:57:52.489Z,7.54
2022-12-23T16:00:21.680Z,7.53
2022-12-23T16:03:00.527Z,7.50
2022-12-23T16:05:38.652Z,7.42
2022-12-23T16:08:28.652Z,7.37
2022-12-23T16:11:02.129Z,7.38
2022-12-23T16:13:29.029Z,7.34
2022-12-23T16:16:19.737Z,7.30
2022-12-23T16:18:47.914Z,7.29
2022-12-23T16:21:15.346Z,7.23
2022-12-23T16:23:49.217Z,7.22
2022-12-23T16:26:15.851Z,7.22
2022-12-23T16:28:44.889Z,7.25
2022-12-23T16:31:15.407Z,7.28
2022-12-23T16:33:48.277Z,7.33
2022-12-23T16:36:27.077Z,7.32
2022-12-23T16:38:59.468Z,7.35
2022-12-23T16:41:26.016Z,7.35
2022-12-23T16:43:53.169Z,7.36
2022-12-23T16:46:21.539Z,7.37
2022-12-23T16:48:50.381Z,7.39
2022-12-23T16:51:20.201Z,7.36
2022-12-23T16:53:51.056Z,7.41
2022-12-23T16:56:20.033Z,7.40
2022-12-23T16:58:46.876Z,7.39
2022-12-23T17:01:15.191Z,7.38
2022-12-23T17:03:41.797Z,7.37
2022-12-23T17:06:13.297Z,7.37
2022-12-23T17:08:40.081Z,7.37
2022-12-23T17:11:13.864Z,7.37
2022-12-23T17:13:40.416Z,7.37
2022-12-23T17:16:12.665Z,7.37
2022-12-23T17:18:39.222Z,7.35
2022-12-23T17:21:05.845Z,7.34
2022-12-23T17:23:32.439Z,7.33
2022-12-23T17:25:58.988Z,7.35
2022-12-23T17:28:29.697Z,7.35
2022-12-23T17:30:56.385Z,7.36
2022-12-23T17:33:24.422Z,7.38
2022-12-23T17:35:50.933Z,7.40
2022-12-23T17:38:17.482Z,7.42
2022-12-23T17:40:45.404Z,7.44
2022-12-23T17:43:16.035Z,7.42
2022-12-23T17:45:43.273Z,7.41
2022-12-23T17:48:20.628Z,7.43
2022-12-23T17:50:48.899Z,7.42
2022-12-23T17:53:17.988Z,7.40
2022-12-23T17:55:44.551Z,7.39
2022-12-23T17:58:11.436Z,7.39
2022-12-23T18:00:38.518Z,7.37
2022-12-23T18:03:05.773Z,7.36
2022-12-23T18:05:34.622Z,7.37
2022-12-23T18:08:02.375Z,7.35
2022-12-23T18:10:33.180Z,7.38
2022-12-23T18:13:06.364Z,7.35
2022-12-23T18:15:36.629Z,7.35
2022-12-23T18:18:13.001Z,7.33
2022-12-23T18:20:40.568Z,7.33
2022-12-23T18:23:12.719Z,7.32
2022-12-23T18:25:40.122Z,7.33
2022-12-23T18:28:06.655Z,7.34
2022-12-23T18:30:33.209Z,7.33
2022-12-23T18:32:59.765Z,7.34
2022-12-23T18:35:30.081Z,7.36
2022-12-23T18:37:57.862Z,7.36
2022-12-23T18:40:30.860Z,7.36
2022-12-23T18:42:59.233Z,7.34
2022-12-23T18:45:41.716Z,7.35
2022-12-23T18:48:09.375Z,7.38
2022-12-23T18:50:38.097Z,7.39
2022-12-23T18:53:06.717Z,7.37
2022-12-23T18:55:33.641Z,7.38
2022-12-23T18:58:00.908Z,7.39
2022-12-23T19:00:29.991Z,7.37
2022-12-23T19:02:59.897Z,7.38
2022-12-23T19:05:32.748Z,7.38
2022-12-23T19:08:04.162Z,7.39
2022-12-23T19:10:33.341Z,7.39
2022-12-23T19:13:00.360Z,7.42
2022-12-23T19:15:27.677Z,7.41
2022-12-23T19:17:54.250Z,7.42
2022-12-23T19:20:20.988Z,7.39
2022-12-23T19:22:48.659Z,7.39
2022-12-23T19:25:19.164Z,7.36
2022-12-23T19:27:46.238Z,7.32
2022-12-23T19:30:15.088Z,7.31
2022-12-23T19:32:41.567Z,7.30
2022-12-23T19:35:10.112Z,7.30
2022-12-23T19:37:38.306Z,7.32
2022-12-23T19:40:06.010Z,7.32
2022-12-23T19:42:33.922Z,7.33
2022-12-23T19:45:00.847Z,7.33
2022-12-23T19:47:27.515Z,7.31
2022-12-23T19:49:54.029Z,7.32
2022-12-23T19:52:20.563Z,7.32
2022-12-23T19:54:47.051Z,7.33
2022-12-23T19:57:13.765Z,7.34
2022-12-23T19:59:40.295Z,7.31
2022-12-23T20:02:07.008Z,7.31
2022-12-23T20:04:33.640Z,7.32
2022-12-23T20:07:00.172Z,7.32
2022-12-23T20:09:27.054Z,7.33
2022-12-23T20:11:53.606Z,7.32
2022-12-23T20:14:21.698Z,7.29
2022-12-23T20:16:49.390Z,7.26
2022-12-23T20:19:16.448Z,7.21
2022-12-23T20:21:45.379Z,7.22
2022-12-23T20:24:12.672Z,7.17
2022-12-23T20:26:39.311Z,7.19
2022-12-23T20:29:05.927Z,7.19
2022-12-23T20:31:33.616Z,7.13
2022-12-23T20:34:01.428Z,7.05
2022-12-23T20:36:30.128Z,7.07
2022-12-23T20:38:57.174Z,7.08
2022-12-23T20:41:28.266Z,7.11
2022-12-23T20:44:31.617Z,6.96
2022-12-23T20:46:41.361Z,7.03
2022-12-23T20:49:08.028Z,7.06
2022-12-23T20:51:34.588Z,7.02
2022-12-23T20:54:01.229Z,7.02
2022-12-23T20:56:29.277Z,7.02
2022-12-23T20:58:57.743Z,7.02
2022-12-23T21:01:36.249Z,7.00
2022-12-23T21:04:16.308Z,6.95
2022-12-23T21:06:43.278Z,6.95
2022-12-23T21:09:12.294Z,6.93
2022-12-23T21:11:42.873Z,6.95
2022-12-23T21:14:09.933Z,6.97
2022-12-23T21:16:37.383Z,6.95
2022-12-23T21:19:04.710Z,6.97
2022-12-23T21:21:31.946Z,6.97
2022-12-23T21:24:00.777Z,6.96
2022-12-23T21:26:28.675Z,6.97
2022-12-23T21:28:59.257Z,6.92
2022-12-23T21:31:27.351Z,6.86
2022-12-23T21:33:54.365Z,6.85
2022-12-23T21:36:23.255Z,6.83
2022-12-23T21:38:50.168Z,6.83
2022-12-23T21:41:22.284Z,6.81
2022-12-23T21:43:49.408Z,6.82
2022-12-23T21:46:18.803Z,6.77
2022-12-23T21:48:46.007Z,6.78
2022-12-23T21:51:15.563Z,6.77
2022-12-23T21:53:43.451Z,6.75
2022-12-23T21:56:12.488Z,6.74
2022-12-23T21:58:39.438Z,6.76
2022-12-23T22:01:11.795Z,6.77
2022-12-23T22:03:38.611Z,6.68
2022-12-23T22:06:10.507Z,6.70
2022-12-23T22:08:38.958Z,6.67
2022-12-23T22:11:07.595Z,6.64
2022-12-23T22:13:34.169Z,6.65
2022-12-23T22:16:01.141Z,6.65
2022-12-23T22:18:27.774Z,6.61
2022-12-23T22:20:54.415Z,6.61
2022-12-23T22:23:21.205Z,6.61
2022-12-23T22:25:54.741Z,6.59
2022-12-23T22:28:21.914Z,6.63
2022-12-23T22:30:48.651Z,6.63
2022-12-23T22:33:15.441Z,6.62
2022-12-23T22:35:42.417Z,6.59
2022-12-23T22:38:10.534Z,6.54
2022-12-23T22:40:37.146Z,6.55
2022-12-23T22:43:03.723Z,6.55
2022-12-23T22:45:30.283Z,6.52
2022-12-23T22:47:57.563Z,6.57
2022-12-23T22:50:24.092Z,6.55
2022-12-23T22:52:50.789Z,6.55
2022-12-23T22:55:17.390Z,6.51
2022-12-23T22:57:43.972Z,6.51
2022-12-23T23:00:12.589Z,6.42
2022-12-23T23:02:39.474Z,6.41
2022-12-23T23:05:12.303Z,6.42
2022-12-23T23:07:39.364Z,6.40
2022-12-23T23:10:06.409Z,6.38
2022-12-23T23:12:32.989Z,6.40
2022-12-23T23:14:59.506Z,6.41
2022-12-23T23:17:27.550Z,6.34
2022-12-23T23:19:54.338Z,6.33
2022-12-23T23:22:22.223Z,6.36
2022-12-23T23:24:49.283Z,6.34
2022-12-23T23:27:15.962Z,6.33
2022-12-23T23:29:42.528Z,6.36
2022-12-23T23:32:09.698Z,6.37
2022-12-23T23:34:37.033Z,6.39
2022-12-23T23:37:04.856Z,6.37
2022-12-23T23:39:31.439Z,6.37
2022-12-23T23:41:58.501Z,6.38
2022-12-23T23:44:25.572Z,6.38
2022-12-23T23:46:52.403Z,6.37
2022-12-23T23:49:19.001Z,6.36
2022-12-23T23:51:45.678Z,6.36
2022-12-23T23:54:12.253Z,6.35
2022-12-23T23:56:42.796Z,6.40
2022-12-23T23:59:09.523Z,6.34
